Time;durP1;ratioP1;P1;durP2;ratioP2;P2;SDS_P1;SDS_P2;PMS_P1;PMS_P2;Temp;Humidity;BMP_temperature;BMP_pressure;BME280_temperature;BME280_humidity;BME280_pressure;Samples;Min_cycle;Max_cycle;Signal;HPM_P1;HPM_P2
2022/01/24 00:01:56;;;;;;;15.20;3.22;;;19.60;55.90;;;;;;4403437;32;20143;-65
2022/01/24 00:04:23;;;;;;;14.20;3.22;;;19.60;55.90;;;;;;4403395;32;20079;-64
2022/01/24 00:06:50;;;;;;;10.98;2.88;;;19.50;55.90;;;;;;4403185;32;20533;-64
2022/01/24 00:09:16;;;;;;;10.10;3.03;;;19.50;55.90;;;;;;4403373;32;20099;-65
2022/01/24 00:27:10;;;;;;;11.52;2.58;;;19.40;55.80;;;;;;4403653;32;20532;-64
2022/01/24 00:29:36;;;;;;;9.23;2.50;;;19.40;55.80;;;;;;4389312;32;20236;-65
2022/01/24 00:32:02;;;;;;;8.02;2.58;;;19.40;55.80;;;;;;4403160;32;20110;-64
2022/01/24 00:34:29;;;;;;;9.60;2.38;;;19.40;55.70;;;;;;4403233;32;20067;-65
2022/01/24 00:36:55;;;;;;;12.68;2.70;;;19.40;55.80;;;;;;4402835;32;20226;-65
2022/01/24 00:39:22;;;;;;;8.38;2.80;;;19.40;55.80;;;;;;4403022;32;20099;-65
2022/01/24 00:42:34;;;;;;;12.40;2.35;;;19.40;55.80;;;;;;4402623;32;20067;-65
2022/01/24 00:47:28;;;;;;;9.07;2.67;;;19.30;55.70;;;;;;4403059;32;20059;-65
2022/01/24 00:55:16;;;;;;;7.32;2.38;;;19.30;55.70;;;;;;4403394;32;20083;-65
2022/01/24 00:57:42;;;;;;;7.50;2.35;;;19.30;55.60;;;;;;4402523;32;20137;-65
2022/01/24 01:00:10;;;;;;;6.28;2.10;;;19.30;56.60;;;;;;4402975;32;20091;-64
2022/01/24 01:02:36;;;;;;;8.40;2.17;;;19.30;55.70;;;;;;4402925;32;20203;-64
2022/01/24 01:07:57;;;;;;;6.07;2.00;;;19.20;55.60;;;;;;4400597;32;20095;-64
2022/01/24 01:18:37;;;;;;;7.82;2.00;;;19.20;55.50;;;;;;4400520;32;20059;-64
2022/01/24 01:23:34;;;;;;;7.78;2.15;;;19.20;55.50;;;;;;4400397;32;20474;-64
2022/01/24 01:26:04;;;;;;;6.28;2.45;;;19.20;55.60;;;;;;4399914;32;20807;-65
2022/01/24 01:28:32;;;;;;;4.85;2.20;;;19.20;55.50;;;;;;4400598;32;20079;-65
2022/01/24 01:31:03;;;;;;;4.00;1.88;;;19.10;55.40;;;;;;4400266;32;20359;-65
2022/01/24 01:57:19;;;;;;;6.95;2.00;;;19.00;55.40;;;;;;4396953;32;20092;-65
2022/01/24 01:59:46;;;;;;;10.82;1.70;;;19.00;55.30;;;;;;4384714;32;20477;-65
2022/01/24 02:02:12;;;;;;;6.60;2.05;;;19.00;55.40;;;;;;4383963;32;20094;-64
2022/01/24 02:04:40;;;;;;;4.65;1.48;;;19.00;55.40;;;;;;4383977;32;20064;-65
2022/01/24 02:07:11;;;;;;;6.32;2.00;;;19.00;55.40;;;;;;4383571;32;20091;-65
2022/01/24 02:09:40;;;;;;;7.50;1.65;;;19.00;55.30;;;;;;4384045;32;20098;-64
2022/01/24 02:12:07;;;;;;;5.70;1.67;;;19.00;55.40;;;;;;4383392;32;20261;-65
2022/01/24 02:14:37;;;;;;;5.53;2.03;;;19.00;55.30;;;;;;4383320;32;20162;-64
2022/01/24 02:17:10;;;;;;;4.70;1.70;;;18.90;55.20;;;;;;4382877;32;20092;-65
2022/01/24 02:24:38;;;;;;;4.70;1.58;;;18.90;56.20;;;;;;4382822;32;20155;-64
2022/01/24 02:27:04;;;;;;;5.35;1.73;;;18.90;55.20;;;;;;4382867;32;20100;-65
2022/01/24 02:29:51;;;;;;;4.40;1.60;;;18.90;55.20;;;;;;4382910;32;20130;-65
2022/01/24 02:32:16;;;;;;;6.13;1.73;;;18.90;56.10;;;;;;4382949;32;20103;-64
2022/01/24 02:34:45;;;;;;;4.82;1.77;;;18.90;55.10;;;;;;4382905;32;20071;-64
2022/01/24 02:37:14;;;;;;;3.30;1.60;;;18.90;55.10;;;;;;4382641;32;20119;-65
2022/01/24 02:39:47;;;;;;;3.30;1.42;;;18.90;55.10;;;;;;4381596;32;20110;-65
2022/01/24 02:53:21;;;;;;;5.50;1.48;;;18.80;55.00;;;;;;4382472;32;20075;-65
2022/01/24 02:55:47;;;;;;;3.47;1.30;;;18.80;55.00;;;;;;4382575;32;20102;-65
2022/01/24 02:58:15;;;;;;;3.83;1.38;;;18.80;55.00;;;;;;4382314;32;20099;-65
2022/01/24 03:00:41;;;;;;;6.18;1.50;;;18.80;55.00;;;;;;4382595;32;20153;-65
2022/01/24 03:03:07;;;;;;;4.25;1.48;;;18.80;55.00;;;;;;4382313;32;20265;-65
2022/01/24 03:05:33;;;;;;;2.78;1.38;;;18.80;55.00;;;;;;4382600;32;20060;-64
2022/01/24 03:07:59;;;;;;;3.83;1.55;;;18.80;55.00;;;;;;4382326;32;20063;-65
2022/01/24 03:10:36;;;;;;;5.85;1.30;;;18.80;55.00;;;;;;4382357;32;20139;-65
2022/01/24 03:15:41;;;;;;;3.65;1.55;;;18.70;54.90;;;;;;4382472;32;20127;-64
2022/01/24 03:18:07;;;;;;;3.42;1.38;;;18.70;54.90;;;;;;4382623;32;20533;-65
2022/01/24 03:20:33;;;;;;;2.03;1.13;;;18.70;54.90;;;;;;4382891;32;20139;-65
2022/01/24 03:23:01;;;;;;;3.88;1.27;;;18.70;54.90;;;;;;4382564;32;20091;-65
2022/01/24 03:25:28;;;;;;;2.47;1.25;;;18.70;54.90;;;;;;4382732;32;20083;-64
2022/01/24 03:27:55;;;;;;;4.38;1.60;;;18.70;55.00;;;;;;4382588;32;20490;-65
2022/01/24 03:30:21;;;;;;;3.08;1.08;;;18.70;54.90;;;;;;4382696;32;20146;-65
2022/01/24 03:32:47;;;;;;;4.15;1.30;;;18.70;54.90;;;;;;4391640;32;20225;-65
2022/01/24 03:35:14;;;;;;;2.53;1.20;;;18.70;54.90;;;;;;4381236;32;20109;-65
2022/01/24 03:37:39;;;;;;;3.63;1.27;;;18.70;54.90;;;;;;4369145;32;20076;-64
2022/01/24 03:40:06;;;;;;;2.35;1.10;;;18.60;54.80;;;;;;4382404;32;20596;-65
2022/01/24 03:42:33;;;;;;;2.47;1.20;;;18.60;54.80;;;;;;4382720;32;20087;-64
2022/01/24 03:45:03;;;;;;;2.33;1.10;;;18.60;54.80;;;;;;4382438;32;20537;-65
2022/01/24 03:47:41;;;;;;;3.33;1.10;;;18.60;54.80;;;;;;4385035;32;20079;-65
2022/01/24 03:50:17;;;;;;;2.88;1.00;;;18.60;54.80;;;;;;4384265;32;20102;-65
2022/01/24 03:52:44;;;;;;;2.65;1.10;;;18.60;54.80;;;;;;4382459;32;20155;-65
2022/01/24 03:55:11;;;;;;;2.90;1.20;;;18.60;54.80;;;;;;4382363;32;20087;-65
2022/01/24 03:57:37;;;;;;;2.28;0.90;;;18.60;54.80;;;;;;4369087;32;20568;-65
2022/01/24 04:00:05;;;;;;;2.30;1.25;;;18.60;54.80;;;;;;4382388;32;20167;-65
2022/01/24 04:02:31;;;;;;;2.22;1.00;;;18.60;54.80;;;;;;4382439;32;20277;-65
2022/01/24 04:04:57;;;;;;;1.92;0.90;;;18.60;54.80;;;;;;4371020;32;20063;-65
2022/01/24 04:07:23;;;;;;;2.58;1.23;;;18.60;54.80;;;;;;4396236;32;20063;-64
2022/01/24 04:09:50;;;;;;;2.58;0.90;;;18.60;54.80;;;;;;4382416;32;20072;-64
2022/01/24 04:12:16;;;;;;;2.97;1.00;;;18.60;54.80;;;;;;4382157;32;20115;-65
2022/01/24 04:15:43;;;;;;;2.15;0.98;;;18.50;54.70;;;;;;4382334;32;20083;-64
2022/01/24 04:17:39;;;;;;;2.90;0.90;;;18.50;54.80;;;;;;4376942;32;20091;-64
2022/01/24 04:22:54;;;;;;;2.88;1.10;;;18.50;54.80;;;;;;4397036;32;20083;-65
2022/01/24 04:25:23;;;;;;;3.03;0.93;;;18.50;54.80;;;;;;4397454;32;20095;-64
2022/01/24 04:27:53;;;;;;;1.83;0.85;;;18.50;54.70;;;;;;4397701;32;20075;-64
2022/01/24 04:30:21;;;;;;;2.08;1.00;;;18.50;54.80;;;;;;4397112;32;20109;-65
2022/01/24 04:32:47;;;;;;;1.33;0.80;;;18.50;54.70;;;;;;4397394;32;20099;-65
2022/01/24 04:35:13;;;;;;;3.47;1.10;;;18.50;54.70;;;;;;4397472;32;20535;-64
2022/01/24 04:37:39;;;;;;;2.38;1.20;;;18.50;54.80;;;;;;4396945;32;20648;-64
2022/01/24 04:40:06;;;;;;;2.92;1.23;;;18.50;54.80;;;;;;4397922;32;20090;-65
2022/01/24 04:42:42;;;;;;;2.13;0.93;;;18.40;54.70;;;;;;4400148;32;20157;-65
2022/01/24 04:45:29;;;;;;;2.03;0.82;;;18.40;54.70;;;;;;4388178;32;20075;-65
2022/01/24 04:51:02;;;;;;;1.30;0.73;;;18.40;54.70;;;;;;4401259;32;20071;-64
2022/01/24 04:53:44;;;;;;;1.48;0.80;;;18.40;54.70;;;;;;4400565;32;20067;-64
2022/01/24 04:56:10;;;;;;;2.17;0.60;;;18.40;54.70;;;;;;4400427;32;20384;-64
2022/01/24 04:58:36;;;;;;;1.45;0.98;;;18.40;54.70;;;;;;4400598;32;20652;-64
2022/01/24 05:01:01;;;;;;;2.65;0.88;;;18.40;54.70;;;;;;4400947;32;20125;-64
2022/01/24 05:03:27;;;;;;;1.58;0.90;;;18.40;54.70;;;;;;4400570;32;20204;-64
2022/01/24 05:05:53;;;;;;;0.95;0.68;;;18.40;54.70;;;;;;4399507;32;20085;-64
2022/01/24 05:08:19;;;;;;;1.60;0.82;;;18.40;54.70;;;;;;4400021;32;20110;-65
2022/01/24 05:11:24;;;;;;;2.92;1.08;;;18.40;54.70;;;;;;4386842;32;20107;-65
2022/01/24 05:24:36;;;;;;;2.42;0.77;;;18.30;54.70;;;;;;4400215;32;20078;-64
2022/01/24 05:27:04;;;;;;;2.35;0.80;;;18.30;54.70;;;;;;4400512;32;20089;-64
2022/01/24 05:29:30;;;;;;;2.03;0.82;;;18.30;54.70;;;;;;4399974;32;20079;-64
2022/01/24 05:31:56;;;;;;;2.45;0.90;;;18.30;54.80;;;;;;4386440;32;20138;-64
2022/01/24 05:34:23;;;;;;;2.00;0.82;;;18.30;54.80;;;;;;4399753;32;20093;-64
2022/01/24 05:36:49;;;;;;;1.45;0.75;;;18.30;54.70;;;;;;4400324;32;20143;-64
2022/01/24 05:39:15;;;;;;;1.20;0.70;;;18.30;54.80;;;;;;4400078;32;20213;-65
2022/01/24 05:41:41;;;;;;;2.13;1.00;;;18.30;54.80;;;;;;4400044;32;20086;-65
2022/01/24 05:44:08;;;;;;;1.80;1.00;;;18.30;54.80;;;;;;4393926;32;20064;-64
2022/01/24 05:46:34;;;;;;;2.05;0.70;;;18.30;54.90;;;;;;4399637;32;20180;-65
2022/01/24 05:49:01;;;;;;;1.38;0.65;;;18.30;54.80;;;;;;4386299;32;20079;-64
2022/01/24 05:51:29;;;;;;;1.25;0.75;;;18.20;54.80;;;;;;4399761;32;20162;-64
2022/01/24 05:53:55;;;;;;;1.13;0.68;;;18.20;54.80;;;;;;4399238;32;20494;-65
2022/01/24 05:56:21;;;;;;;1.95;0.80;;;18.20;54.80;;;;;;4399664;32;20410;-65
2022/01/24 05:58:47;;;;;;;2.50;0.77;;;18.20;54.80;;;;;;4400024;32;20092;-64
2022/01/24 06:01:16;;;;;;;1.45;0.65;;;18.20;54.80;;;;;;4399459;32;20127;-65
2022/01/24 06:03:42;;;;;;;1.63;0.77;;;18.20;54.80;;;;;;4399584;32;20091;-65
2022/01/24 06:06:09;;;;;;;2.08;0.75;;;18.20;54.80;;;;;;4386224;32;20514;-64
2022/01/24 06:08:35;;;;;;;2.13;0.75;;;18.20;54.80;;;;;;4399511;32;20083;-64
2022/01/24 06:11:01;;;;;;;0.85;0.70;;;18.20;54.80;;;;;;4399418;32;20121;-65
2022/01/24 06:13:28;;;;;;;2.92;0.80;;;18.20;54.80;;;;;;4399207;32;20086;-65
2022/01/24 06:15:54;;;;;;;2.40;0.80;;;18.20;54.80;;;;;;4399718;32;20075;-65
2022/01/24 06:18:25;;;;;;;1.52;0.82;;;18.20;54.80;;;;;;4385454;32;20063;-64
2022/01/24 06:20:53;;;;;;;1.33;0.68;;;18.20;54.80;;;;;;4385690;32;20415;-64
2022/01/24 06:23:19;;;;;;;1.42;0.70;;;18.20;54.80;;;;;;4399101;32;20228;-64
2022/01/24 06:25:45;;;;;;;1.05;0.60;;;18.10;54.80;;;;;;4399504;32;20224;-64
2022/01/24 06:28:13;;;;;;;0.90;0.60;;;18.20;54.80;;;;;;4399789;32;20166;-65
2022/01/24 06:30:38;;;;;;;1.75;0.60;;;18.20;54.80;;;;;;4399007;32;20079;-65
2022/01/24 06:33:04;;;;;;;2.28;0.60;;;18.10;54.70;;;;;;4399329;32;20414;-64
2022/01/24 06:35:31;;;;;;;1.10;0.65;;;18.10;54.70;;;;;;4385193;32;20071;-64
2022/01/24 06:37:56;;;;;;;1.10;0.70;;;18.10;54.80;;;;;;4399171;32;20091;-64
2022/01/24 06:40:22;;;;;;;1.27;0.60;;;18.10;54.80;;;;;;4398618;32;20114;-65
2022/01/24 06:42:48;;;;;;;1.15;0.70;;;18.10;54.80;;;;;;4399350;32;20083;-65
2022/01/24 06:45:14;;;;;;;0.98;0.50;;;18.10;54.80;;;;;;4399372;32;20071;-64
2022/01/24 06:47:41;;;;;;;1.27;0.50;;;18.10;54.80;;;;;;4398877;32;20056;-65
2022/01/24 06:50:08;;;;;;;1.58;0.90;;;18.10;54.80;;;;;;4392974;32;20059;-64
2022/01/24 06:52:34;;;;;;;1.73;0.70;;;18.10;54.80;;;;;;4398225;32;20090;-64
2022/01/24 06:55:00;;;;;;;3.78;0.80;;;18.10;54.80;;;;;;4399141;32;20093;-65
2022/01/24 06:57:26;;;;;;;1.60;0.73;;;18.10;54.90;;;;;;4398428;32;20119;-64
2022/01/24 06:59:52;;;;;;;0.90;0.50;;;18.10;54.90;;;;;;4398595;32;20078;-65
2022/01/24 07:02:18;;;;;;;2.17;0.70;;;18.10;54.90;;;;;;4385012;32;20146;-64
2022/01/24 07:04:44;;;;;;;1.17;0.63;;;18.10;54.90;;;;;;4397830;32;20387;-64
2022/01/24 07:07:12;;;;;;;1.73;0.60;;;18.00;54.80;;;;;;4398975;32;20051;-65
2022/01/24 07:09:39;;;;;;;1.92;0.50;;;18.00;54.80;;;;;;4398387;32;20159;-65
2022/01/24 07:12:06;;;;;;;0.98;0.60;;;18.00;54.80;;;;;;4398675;32;20094;-64
2022/01/24 07:14:32;;;;;;;1.33;0.60;;;18.00;55.80;;;;;;4398408;32;20095;-65
2022/01/24 07:19:30;;;;;;;1.00;0.60;;;18.00;54.90;;;;;;4398536;32;20086;-64
2022/01/24 07:21:57;;;;;;;0.70;0.60;;;18.00;54.90;;;;;;4398897;32;20169;-64
2022/01/24 07:24:24;;;;;;;0.70;0.50;;;18.00;54.90;;;;;;4398525;32;20071;-64
2022/01/24 07:26:50;;;;;;;0.75;0.40;;;18.00;55.00;;;;;;4398514;32;20501;-65
2022/01/24 07:29:18;;;;;;;0.85;0.45;;;18.00;54.90;;;;;;4398282;32;20134;-64
2022/01/24 07:31:46;;;;;;;1.38;0.60;;;18.00;55.00;;;;;;4398403;32;20082;-65
2022/01/24 07:34:13;;;;;;;1.33;0.60;;;18.00;55.00;;;;;;4398558;32;20101;-64
2022/01/24 07:36:39;;;;;;;0.63;0.50;;;18.00;55.00;;;;;;4384452;32;20502;-65
2022/01/24 07:39:05;;;;;;;1.90;0.50;;;18.00;54.90;;;;;;4384850;32;20145;-65
2022/01/24 07:41:34;;;;;;;1.05;0.70;;;18.00;54.90;;;;;;4398435;32;20470;-65
2022/01/24 07:44:00;;;;;;;0.88;0.60;;;18.00;54.90;;;;;;4398177;32;20087;-64
2022/01/24 07:46:28;;;;;;;1.48;0.77;;;17.90;54.90;;;;;;4384222;32;20097;-64
2022/01/24 07:48:54;;;;;;;1.10;0.60;;;17.90;54.90;;;;;;4398308;32;20301;-64
2022/01/24 07:51:20;;;;;;;0.82;0.63;;;17.90;54.90;;;;;;4398549;32;20083;-64
2022/01/24 07:53:46;;;;;;;0.65;0.50;;;17.90;54.90;;;;;;4397848;32;20813;-64
2022/01/24 07:56:12;;;;;;;1.13;0.60;;;17.90;54.90;;;;;;4398421;32;20087;-64
2022/01/24 07:58:41;;;;;;;0.82;0.55;;;17.90;54.90;;;;;;4398096;32;20086;-65
2022/01/24 08:01:08;;;;;;;0.90;0.40;;;17.90;54.90;;;;;;4398243;32;20098;-64
2022/01/24 08:03:35;;;;;;;1.33;0.77;;;17.90;55.00;;;;;;4397880;32;20164;-66
2022/01/24 08:06:01;;;;;;;2.90;1.77;;;17.90;55.00;;;;;;4398503;32;20079;-65
2022/01/24 08:08:27;;;;;;;3.45;3.05;;;17.90;54.50;;;;;;4398297;32;20122;-65
2022/01/24 08:10:53;;;;;;;4.45;3.67;;;17.90;53.70;;;;;;4397888;32;20055;-65
2022/01/24 08:13:19;;;;;;;5.05;3.72;;;17.80;53.00;;;;;;4398222;32;20063;-65
2022/01/24 08:15:45;;;;;;;5.90;3.10;;;17.80;52.90;;;;;;4397727;32;20071;-65
2022/01/24 08:18:11;;;;;;;6.15;2.60;;;17.80;53.40;;;;;;4401453;32;20055;-65
2022/01/24 08:20:37;;;;;;;3.50;2.42;;;17.80;53.80;;;;;;4400761;32;20106;-65
2022/01/24 08:23:03;;;;;;;3.92;2.20;;;17.80;54.10;;;;;;4401039;32;20101;-65
2022/01/24 08:25:30;;;;;;;4.75;2.25;;;17.80;54.30;;;;;;4401084;32;20091;-65
2022/01/24 08:27:56;;;;;;;6.50;2.53;;;17.80;54.30;;;;;;4400697;32;20240;-65
2022/01/24 08:30:24;;;;;;;6.00;2.38;;;17.80;54.40;;;;;;4401066;32;20075;-65
2022/01/24 08:32:50;;;;;;;2.75;2.10;;;17.80;54.40;;;;;;4400662;32;20099;-65
2022/01/24 08:35:18;;;;;;;3.85;2.00;;;17.80;54.40;;;;;;4401202;32;20605;-65
2022/01/24 08:37:44;;;;;;;2.00;1.80;;;17.80;54.40;;;;;;4400799;32;20095;-65
2022/01/24 08:40:20;;;;;;;3.45;1.52;;;17.90;54.50;;;;;;4401111;32;20063;-65
2022/01/24 08:42:56;;;;;;;3.17;1.42;;;17.90;54.50;;;;;;4400373;32;20111;-65
2022/01/24 08:48:07;;;;;;;4.18;1.40;;;18.10;54.20;;;;;;4400888;32;20105;-65
2022/01/24 08:50:34;;;;;;;3.67;1.23;;;18.20;54.00;;;;;;4400591;32;20526;-65
2022/01/24 08:53:01;;;;;;;1.30;0.98;;;18.30;53.80;;;;;;4400825;32;20071;-65
2022/01/24 08:55:33;;;;;;;1.27;1.00;;;18.50;53.50;;;;;;4400543;32;20142;-65
2022/01/24 08:58:01;;;;;;;2.72;0.85;;;18.60;53.30;;;;;;4400477;32;20095;-65
2022/01/24 09:00:27;;;;;;;3.17;1.08;;;18.70;53.00;;;;;;4400551;32;20174;-65
2022/01/24 09:02:53;;;;;;;3.95;1.02;;;18.80;52.80;;;;;;4386195;32;20079;-65
2022/01/24 09:05:21;;;;;;;1.40;0.90;;;19.00;52.60;;;;;;4387302;32;20060;-65
2022/01/24 09:07:47;;;;;;;2.13;0.90;;;19.10;52.30;;;;;;4399941;32;20103;-65
2022/01/24 09:10:13;;;;;;;2.90;0.90;;;19.20;52.00;;;;;;4398240;32;20105;-66
2022/01/24 09:12:41;;;;;;;1.90;1.00;;;19.30;51.70;;;;;;4399475;32;20106;-65
2022/01/24 09:15:07;;;;;;;1.55;0.68;;;19.50;51.60;;;;;;4400155;32;20071;-65
2022/01/24 09:17:33;;;;;;;2.67;1.00;;;19.60;51.30;;;;;;4399981;32;20169;-65
2022/01/24 09:19:59;;;;;;;1.38;0.60;;;19.70;51.10;;;;;;4399565;32;20259;-65
2022/01/24 09:22:26;;;;;;;2.33;0.82;;;19.80;50.90;;;;;;4400314;32;20313;-65
2022/01/24 09:24:52;;;;;;;1.25;0.70;;;19.90;50.70;;;;;;4399530;32;20409;-65
2022/01/24 09:27:19;;;;;;;1.50;0.93;;;20.00;50.40;;;;;;4399514;32;20067;-65
2022/01/24 09:29:44;;;;;;;0.85;0.50;;;20.10;50.10;;;;;;4399217;32;20076;-65
2022/01/24 09:32:11;;;;;;;1.15;0.60;;;20.30;49.90;;;;;;4399964;32;20091;-65
2022/01/24 09:34:37;;;;;;;1.52;0.68;;;20.40;49.70;;;;;;4399657;32;20093;-65
2022/01/24 09:37:03;;;;;;;3.33;0.60;;;20.60;49.50;;;;;;4399297;32;20063;-65
2022/01/24 09:39:29;;;;;;;0.93;0.65;;;20.60;49.20;;;;;;4399627;32;20086;-65
2022/01/24 09:41:55;;;;;;;0.82;0.57;;;20.70;49.10;;;;;;4399618;32;20506;-66
2022/01/24 09:44:21;;;;;;;0.82;0.50;;;20.80;48.90;;;;;;4399537;32;20123;-66
2022/01/24 09:46:47;;;;;;;2.28;0.68;;;20.90;48.70;;;;;;4399182;32;20098;-65
2022/01/24 09:49:14;;;;;;;1.65;0.68;;;21.00;48.60;;;;;;4399851;32;20090;-66
2022/01/24 09:51:40;;;;;;;1.65;0.68;;;21.10;48.50;;;;;;4399601;32;20067;-65
2022/01/24 09:54:08;;;;;;;1.35;0.60;;;21.10;48.30;;;;;;4398937;32;20473;-65
2022/01/24 09:56:34;;;;;;;0.77;0.60;;;21.20;48.20;;;;;;4399576;32;20094;-66
2022/01/24 09:59:01;;;;;;;1.00;0.50;;;21.20;48.10;;;;;;4397843;32;20244;-66
2022/01/24 10:01:27;;;;;;;3.40;0.70;;;21.20;47.90;;;;;;4398469;32;20110;-65
2022/01/24 10:04:16;;;;;;;1.92;0.70;;;21.20;47.80;;;;;;4398884;32;20277;-65
2022/01/24 10:07:01;;;;;;;0.85;0.60;;;21.30;47.80;;;;;;4399463;32;20079;-66
2022/01/24 10:09:50;;;;;;;3.90;0.60;;;21.30;48.00;;;;;;4399429;32;20157;-65
2022/01/24 10:17:37;;;;;;;0.85;0.60;;;21.10;48.50;;;;;;4398859;32;20169;-65
2022/01/24 10:20:30;;;;;;;1.75;0.95;;;21.00;48.80;;;;;;4398936;32;20095;-65
2022/01/24 10:23:16;;;;;;;0.50;0.50;;;20.90;49.10;;;;;;4398246;32;20090;-65
2022/01/24 10:26:02;;;;;;;2.30;0.55;;;20.80;49.50;;;;;;4398260;32;20075;-65
2022/01/24 10:28:44;;;;;;;1.85;0.80;;;20.80;49.80;;;;;;4398882;32;20071;-65
2022/01/24 10:31:10;;;;;;;1.20;0.52;;;20.60;50.80;;;;;;4399281;32;20517;-66
2022/01/24 10:36:50;;;;;;;1.17;0.63;;;20.50;50.40;;;;;;4398511;32;20063;-65
2022/01/24 10:45:01;;;;;;;0.90;0.50;;;20.40;50.90;;;;;;4398623;32;20089;-65
2022/01/24 10:47:31;;;;;;;0.80;0.47;;;20.30;51.00;;;;;;4398759;32;20542;-65
2022/01/24 10:50:02;;;;;;;1.75;0.77;;;20.30;51.10;;;;;;4398398;32;20095;-65
2022/01/24 10:52:33;;;;;;;1.45;0.60;;;20.30;51.30;;;;;;4398676;32;20105;-65
2022/01/24 10:55:13;;;;;;;1.00;0.70;;;20.20;51.30;;;;;;4396778;32;20101;-65
2022/01/24 10:57:40;;;;;;;1.90;0.70;;;20.20;51.40;;;;;;4397656;32;20221;-65
2022/01/24 11:00:14;;;;;;;1.70;0.55;;;20.30;51.50;;;;;;4398192;32;20094;-65
2022/01/24 11:02:42;;;;;;;1.10;0.70;;;20.20;51.50;;;;;;4398968;32;20075;-65
2022/01/24 11:05:26;;;;;;;1.15;0.70;;;20.20;51.50;;;;;;4398706;32;20098;-65
2022/01/24 11:07:51;;;;;;;1.35;0.60;;;20.20;51.50;;;;;;4398859;32;20083;-65
2022/01/24 11:10:17;;;;;;;1.45;0.90;;;20.30;51.50;;;;;;4399069;32;20394;-66
2022/01/24 11:12:44;;;;;;;1.27;0.70;;;20.30;51.60;;;;;;4398965;32;20079;-65
2022/01/24 11:15:11;;;;;;;1.30;0.70;;;20.20;51.50;;;;;;4397836;32;20098;-65
2022/01/24 11:17:37;;;;;;;5.43;1.20;;;20.20;51.60;;;;;;4384636;32;20186;-65
2022/01/24 11:20:04;;;;;;;2.55;0.70;;;20.20;51.60;;;;;;4396115;32;20110;-66
2022/01/24 11:22:33;;;;;;;1.23;0.70;;;20.20;51.70;;;;;;4398359;32;20142;-65
2022/01/24 11:25:06;;;;;;;1.55;0.80;;;20.20;51.80;;;;;;4398321;32;20133;-65
2022/01/24 11:27:34;;;;;;;4.07;1.00;;;20.20;51.90;;;;;;4398501;32;20416;-65
2022/01/24 11:30:12;;;;;;;6.18;0.90;;;20.10;51.90;;;;;;4398436;32;20082;-65
2022/01/24 11:33:09;;;;;;;1.10;0.93;;;20.10;52.00;;;;;;4398658;32;20382;-65
2022/01/24 11:35:50;;;;;;;2.88;0.85;;;20.00;52.10;;;;;;4394634;32;20173;-65
2022/01/24 11:38:36;;;;;;;2.08;1.45;;;20.00;52.30;;;;;;4392421;32;20082;-65
2022/01/24 11:41:25;;;;;;;4.15;2.40;;;19.90;52.20;;;;;;4398034;32;20137;-65
2022/01/24 11:43:55;;;;;;;3.67;2.50;;;19.80;52.10;;;;;;4398544;32;20490;-65
2022/01/24 11:46:49;;;;;;;3.67;2.60;;;19.80;52.10;;;;;;4398247;32;20067;-65
2022/01/24 11:49:17;;;;;;;3.05;2.47;;;19.80;52.00;;;;;;4396316;32;20404;-66
2022/01/24 11:51:46;;;;;;;3.47;2.42;;;19.80;52.00;;;;;;4397681;32;20071;-65
2022/01/24 11:57:36;;;;;;;2.83;2.15;;;19.90;51.70;;;;;;4397725;32;20074;-66
2022/01/24 12:00:02;;;;;;;3.08;2.10;;;20.00;51.80;;;;;;4397726;32;20089;-66
2022/01/24 12:02:30;;;;;;;2.22;1.67;;;20.00;52.60;;;;;;4398343;32;20090;-66
2022/01/24 12:05:12;;;;;;;4.38;1.90;;;20.10;51.90;;;;;;4397299;32;20335;-65
2022/01/24 12:07:41;;;;;;;2.92;2.00;;;20.10;52.10;;;;;;4398079;32;20087;-65
2022/01/24 12:10:27;;;;;;;4.32;1.58;;;20.10;51.90;;;;;;4384346;32;20184;-65
2022/01/24 12:13:20;;;;;;;2.70;1.52;;;20.10;52.10;;;;;;4397820;32;20089;-66
2022/01/24 12:15:49;;;;;;;1.42;1.20;;;20.10;52.00;;;;;;4397543;32;20138;-65
2022/01/24 12:18:27;;;;;;;9.65;1.42;;;20.10;52.10;;;;;;4396665;32;20079;-65
2022/01/24 12:20:55;;;;;;;3.00;1.23;;;20.20;52.30;;;;;;4397362;32;20205;-65
2022/01/24 12:23:30;;;;;;;3.20;1.40;;;20.20;52.30;;;;;;4396973;32;20138;-66
2022/01/24 12:25:58;;;;;;;3.60;1.48;;;20.30;52.30;;;;;;4397339;32;20193;-65
2022/01/24 12:28:25;;;;;;;3.25;1.10;;;20.30;52.20;;;;;;4396561;32;20067;-66
2022/01/24 12:30:58;;;;;;;1.77;1.02;;;20.40;52.00;;;;;;4397245;32;20089;-66
2022/01/24 12:33:36;;;;;;;1.50;0.95;;;20.50;51.80;;;;;;4396970;32;20099;-66
2022/01/24 12:36:06;;;;;;;4.68;1.25;;;20.60;51.50;;;;;;4394983;32;20549;-66
2022/01/24 12:39:07;;;;;;;3.97;1.15;;;20.70;51.40;;;;;;4397252;32;20217;-65
2022/01/24 12:41:38;;;;;;;4.55;1.20;;;20.70;51.40;;;;;;4394585;32;20087;-65
2022/01/24 12:46:32;;;;;;;4.15;1.40;;;20.80;51.40;;;;;;4397925;32;20201;-65
2022/01/24 12:49:02;;;;;;;3.85;1.17;;;20.80;51.40;;;;;;4397585;32;20093;-64
2022/01/24 12:51:31;;;;;;;2.42;1.48;;;20.80;51.40;;;;;;4397884;32;20079;-65
2022/01/24 12:53:57;;;;;;;8.73;1.23;;;20.80;51.50;;;;;;4397948;32;20596;-64
2022/01/24 12:56:25;;;;;;;4.78;1.40;;;20.80;51.60;;;;;;4397507;32;20165;-65
2022/01/24 12:58:52;;;;;;;4.68;1.40;;;20.80;51.60;;;;;;4398080;32;20233;-65
2022/01/24 13:01:22;;;;;;;5.57;1.38;;;20.80;51.60;;;;;;4396766;32;20079;-66
2022/01/24 13:03:49;;;;;;;2.03;1.20;;;20.80;51.60;;;;;;4399748;32;20242;-65
2022/01/24 13:06:16;;;;;;;3.80;1.50;;;20.80;51.80;;;;;;4399965;32;20139;-66
2022/01/24 13:09:16;;;;;;;8.43;1.42;;;20.80;51.80;;;;;;4400551;32;20075;-66
2022/01/24 13:11:54;;;;;;;2.15;1.10;;;20.90;51.80;;;;;;4375589;32;20079;-66
2022/01/24 13:25:16;;;;;;;7.22;1.48;;;21.00;51.30;;;;;;4400229;32;20189;-66
2022/01/24 13:27:49;;;;;;;7.88;2.15;;;21.00;51.40;;;;;;4400323;32;20165;-66
2022/01/24 13:30:25;;;;;;;5.97;1.23;;;21.00;51.30;;;;;;4400261;32;20209;-65
2022/01/24 13:33:11;;;;;;;1.73;1.02;;;21.00;51.30;;;;;;4400531;32;20082;-66
2022/01/24 13:35:45;;;;;;;7.95;1.27;;;21.10;51.40;;;;;;4399308;32;20577;-66
2022/01/24 13:38:18;;;;;;;8.20;1.80;;;21.00;51.40;;;;;;4399756;32;20086;-67
2022/01/24 13:40:58;;;;;;;5.63;1.48;;;21.10;51.50;;;;;;4399874;32;20090;-66
2022/01/24 13:43:35;;;;;;;7.53;1.60;;;21.00;51.50;;;;;;4399999;32;20101;-66
2022/01/24 13:46:19;;;;;;;4.53;1.25;;;21.00;51.60;;;;;;4400237;32;20475;-65
2022/01/24 13:48:48;;;;;;;6.22;1.40;;;21.00;51.70;;;;;;4400133;32;20075;-66
2022/01/24 13:51:20;;;;;;;3.08;1.48;;;21.00;51.70;;;;;;4398925;32;20221;-66
2022/01/24 13:53:57;;;;;;;5.28;1.48;;;21.00;51.70;;;;;;4399375;32;20063;-66
2022/01/24 13:56:29;;;;;;;5.35;1.65;;;21.10;51.70;;;;;;4398750;32;20071;-66
2022/01/24 13:59:00;;;;;;;2.25;1.35;;;21.10;51.60;;;;;;4399066;32;20221;-66
2022/01/24 14:01:27;;;;;;;3.92;1.42;;;21.10;51.60;;;;;;4398696;32;20091;-67
2022/01/24 14:04:01;;;;;;;9.75;1.83;;;21.10;51.60;;;;;;4398997;32;20090;-67
2022/01/24 14:06:31;;;;;;;5.93;1.38;;;21.10;51.50;;;;;;4385309;32;20067;-67
2022/01/24 14:09:15;;;;;;;5.68;1.92;;;21.10;51.50;;;;;;4398875;32;20268;-67
2022/01/24 14:11:47;;;;;;;2.90;1.50;;;21.10;51.60;;;;;;4399017;32;20087;-66
2022/01/24 14:14:18;;;;;;;2.10;1.47;;;21.10;51.60;;;;;;4398750;32;20071;-66
2022/01/24 14:17:08;;;;;;;2.40;1.33;;;21.10;51.60;;;;;;4399040;32;20217;-66
2022/01/24 14:19:35;;;;;;;3.08;1.50;;;21.10;51.50;;;;;;4398636;32;20227;-66
2022/01/24 14:22:11;;;;;;;3.90;1.40;;;21.10;51.50;;;;;;4397356;32;20138;-67
2022/01/24 14:24:45;;;;;;;3.33;1.20;;;21.10;51.50;;;;;;4398464;32;20139;-65
2022/01/24 14:27:13;;;;;;;3.15;1.45;;;21.10;51.50;;;;;;4398631;32;20426;-65
2022/01/24 14:29:39;;;;;;;6.28;1.45;;;21.10;51.60;;;;;;4385357;32;20117;-66
2022/01/24 14:32:14;;;;;;;10.43;1.65;;;21.10;51.60;;;;;;4399079;32;20086;-66
2022/01/24 14:34:40;;;;;;;4.28;1.50;;;21.10;51.60;;;;;;4398760;32;20245;-66
2022/01/24 14:37:07;;;;;;;9.52;1.80;;;21.00;51.60;;;;;;4399600;32;20406;-66
2022/01/24 14:39:47;;;;;;;11.88;1.67;;;21.00;51.70;;;;;;4398532;32;20106;-66
2022/01/24 14:42:27;;;;;;;15.20;1.65;;;21.00;51.70;;;;;;4399611;32;20662;-66
2022/01/24 14:44:53;;;;;;;4.55;1.90;;;21.00;51.60;;;;;;4398908;32;20220;-65
2022/01/24 14:47:22;;;;;;;11.43;1.48;;;21.00;51.70;;;;;;4395156;32;20093;-67
2022/01/24 14:49:47;;;;;;;9.82;1.60;;;21.00;51.80;;;;;;4398759;32;20126;-65
2022/01/24 14:52:18;;;;;;;8.50;1.40;;;21.00;51.80;;;;;;4398548;32;20193;-65
2022/01/24 14:54:44;;;;;;;3.65;1.52;;;21.00;51.80;;;;;;4398447;32;20083;-65
2022/01/24 14:57:12;;;;;;;7.88;2.85;;;21.00;51.80;;;;;;4398179;32;20098;-65
2022/01/24 14:59:42;;;;;;;5.95;2.92;;;21.00;51.40;;;;;;4398268;32;20086;-65
2022/01/24 15:02:08;;;;;;;9.30;3.15;;;21.00;52.10;;;;;;4398385;32;20182;-65
2022/01/24 15:04:34;;;;;;;18.83;3.15;;;21.00;51.10;;;;;;4397030;32;20079;-65
2022/01/24 15:07:00;;;;;;;11.27;2.83;;;21.00;51.10;;;;;;4398020;32;20113;-65
2022/01/24 15:09:29;;;;;;;6.43;2.17;;;21.00;51.00;;;;;;4398186;32;20137;-65
2022/01/24 15:11:57;;;;;;;10.73;2.50;;;21.10;51.00;;;;;;4398460;32;20086;-64